Time;durP1;ratioP1;P1;durP2;ratioP2;P2;SDS_P1;SDS_P2;PMS_P1;PMS_P2;Temp;Humidity;BMP_temperature;BMP_pressure;BME280_temperature;BME280_humidity;BME280_pressure;Samples;Min_cycle;Max_cycle;Signal;HPM_P1;HPM_P2
2024/03/19 00:00:14;;;;;;;46.35;26.88;;;;;;;11.30;77.34;99981.47;6047890;23;20033;-89
2024/03/19 00:02:48;;;;;;;42.38;26.23;;;;;;;11.26;77.69;99987.84;6047790;23;20457;-89
2024/03/19 00:05:14;;;;;;;44.55;27.17;;;;;;;11.27;77.54;99985.13;6071503;23;20372;-89
2024/03/19 00:07:40;;;;;;;47.83;28.67;;;;;;;11.25;77.46;99979.09;6047739;23;20076;-89
2024/03/19 00:10:12;;;;;;;51.65;27.92;;;;;;;11.22;77.73;99989.81;6071543;23;20030;-89
2024/03/19 00:12:38;;;;;;;52.25;30.00;;;;;;;11.24;77.70;99985.28;6047656;23;20022;-89
2024/03/19 00:15:44;;;;;;;54.83;29.48;;;;;;;11.19;78.21;99989.97;6047548;23;20434;-89
2024/03/19 00:18:10;;;;;;;54.65;29.48;;;;;;;11.23;78.32;99988.00;6047714;23;20029;-89
2024/03/19 00:20:35;;;;;;;55.20;30.27;;;;;;;11.21;78.19;99982.81;6047776;23;20022;-89
2024/03/19 00:23:01;;;;;;;54.60;30.83;;;;;;;11.21;78.75;99985.47;6071387;23;20030;-89
2024/03/19 12:38:13;;;;;;;14.98;8.95;;;;;;;19.84;59.72;100061.97;6068105;23;20023;-89
2024/03/19 12:40:39;;;;;;;12.55;7.32;;;;;;;19.97;60.95;100060.84;6043088;23;20476;-88
2024/03/19 12:43:06;;;;;;;15.00;7.90;;;;;;;20.03;60.57;100044.25;6066903;23;20030;-89
2024/03/19 12:45:54;;;;;;;9.05;6.00;;;;;;;20.05;57.60;100047.63;6043034;23;20023;-89
2024/03/19 12:48:20;;;;;;;9.88;7.03;;;;;;;20.21;61.26;100054.22;6042762;23;20354;-89
2024/03/19 12:50:45;;;;;;;11.93;7.07;;;;;;;20.29;58.47;100057.00;6043014;23;20097;-89
2024/03/19 12:53:31;;;;;;;11.25;7.38;;;;;;;20.32;54.12;100054.06;6043000;23;20027;-88
2024/03/19 12:55:59;;;;;;;11.23;7.53;;;;;;;20.48;59.33;100050.78;6066766;23;20349;-89
2024/03/19 12:58:25;;;;;;;9.90;7.35;;;;;;;20.68;61.02;100051.56;6042766;23;20019;-89
2024/03/19 13:00:51;;;;;;;10.02;7.00;;;;;;;20.99;61.92;100050.50;6042865;23;20030;-89
2024/03/19 13:03:17;;;;;;;7.32;5.80;;;;;;;21.28;57.37;100052.16;6042845;23;20023;-89
2024/03/19 13:06:05;;;;;;;10.13;6.30;;;;;;;21.43;47.70;100063.22;6042945;23;20035;-89
2024/03/19 13:08:32;;;;;;;9.52;5.63;;;;;;;21.54;54.83;100058.63;6042642;23;20046;-89
2024/03/19 13:10:58;;;;;;;8.57;5.70;;;;;;;21.46;54.02;100056.69;6042918;23;20079;-89
2024/03/19 13:16:48;;;;;;;9.40;6.05;;;;;;;21.01;52.63;100069.91;6066525;23;20476;-88
2024/03/19 13:19:33;;;;;;;10.27;5.70;;;;;;;20.65;51.25;100065.25;6042860;23;20075;-89
2024/03/19 13:21:58;;;;;;;13.43;6.25;;;;;;;20.44;52.53;100063.59;6042711;23;20027;-89
2024/03/19 13:24:24;;;;;;;8.55;6.22;;;;;;;20.17;52.39;100069.69;6044729;23;20023;-89
2024/03/19 13:27:42;;;;;;;10.98;6.32;;;;;;;19.83;48.51;100062.09;6044637;23;20045;-89
2024/03/19 13:30:08;;;;;;;8.45;5.07;;;;;;;19.61;52.19;100062.22;6044679;23;20023;-89
2024/03/19 13:32:42;;;;;;;9.48;4.88;;;;;;;19.36;50.00;100052.94;6044549;23;20034;-89
2024/03/19 13:35:08;;;;;;;7.22;4.65;;;;;;;19.24;53.52;100055.72;6044688;23;20076;-89
2024/03/19 13:37:34;;;;;;;8.18;4.95;;;;;;;19.13;54.53;100051.31;6044360;23;20323;-89
2024/03/19 13:40:24;;;;;;;6.60;5.15;;;;;;;19.04;52.95;100044.09;6044478;23;20034;-89
2024/03/19 13:42:51;;;;;;;7.60;5.40;;;;;;;19.19;57.42;100041.94;6044464;23;20357;-89
2024/03/19 13:45:16;;;;;;;9.18;5.28;;;;;;;19.36;57.85;100044.94;6044442;23;20027;-89
2024/03/19 13:47:42;;;;;;;9.75;6.07;;;;;;;19.63;57.89;100044.22;6044454;23;20058;-89
2024/03/19 13:50:09;;;;;;;12.00;5.22;;;;;;;19.92;57.38;100053.22;6068312;23;20461;-90
2024/03/19 13:52:37;;;;;;;8.20;4.55;;;;;;;20.22;56.71;100053.25;6044408;23;20042;-88
2024/03/19 13:55:31;;;;;;;5.28;3.60;;;;;;;20.44;51.52;100052.91;6068139;23;20406;-88
2024/03/19 13:58:01;;;;;;;8.63;4.80;;;;;;;20.61;51.05;100055.81;6044151;23;20023;-88
2024/03/19 14:00:41;;;;;;;6.97;4.82;;;;;;;20.62;50.73;100056.66;6044223;23;20584;-89
2024/03/19 14:03:11;;;;;;;7.78;4.65;;;;;;;20.62;52.57;100051.28;6044279;23;20082;-88
2024/03/19 14:05:38;;;;;;;10.98;4.97;;;;;;;20.50;51.84;100051.50;6044082;23;20121;-88
2024/03/19 14:08:20;;;;;;;9.40;5.00;;;;;;;20.26;48.20;100057.31;6043737;23;20045;-89
2024/03/19 14:13:24;;;;;;;7.03;4.22;;;;;;;19.93;51.24;100050.41;6068160;23;20022;-90
2024/03/19 14:16:02;;;;;;;5.28;4.28;;;;;;;19.70;50.62;100054.38;6044256;23;20023;-91
2024/03/19 14:18:29;;;;;;;6.55;4.43;;;;;;;19.61;52.58;100045.34;6050740;23;20030;-96
2024/03/19 14:20:56;;;;;;;7.30;4.20;;;;;;;19.47;52.57;100050.13;6067125;23;20030;-96
2024/03/19 14:27:03;;;;;;;10.95;4.82;;;;;;;19.14;52.41;100045.00;6092297;23;20025;-96
2024/03/19 14:33:14;;;;;;;7.00;4.70;;;;;;;18.83;54.10;100058.34;6090969;23;20038;-96
2024/03/19 14:39:27;;;;;;;10.40;5.85;;;;;;;18.52;52.29;100058.34;6072977;23;20026;-93
2024/03/19 14:41:53;;;;;;;7.65;4.90;;;;;;;18.40;53.98;100052.25;6043958;23;20022;-93
2024/03/19 14:44:27;;;;;;;9.05;5.10;;;;;;;18.23;52.16;100065.19;6043922;23;20023;-92
2024/03/19 14:46:58;;;;;;;8.45;4.22;;;;;;;18.16;53.78;100065.84;6068105;23;20022;-92
2024/03/19 14:49:38;;;;;;;7.05;5.03;;;;;;;17.97;51.84;100067.34;6043793;23;20019;-92
2024/03/19 14:52:04;;;;;;;8.38;4.57;;;;;;;17.92;54.03;100062.41;6044229;23;20023;-93
2024/03/19 14:54:29;;;;;;;9.93;4.93;;;;;;;17.82;54.59;100067.66;6044105;23;20085;-93
2024/03/19 15:00:43;;;;;;;11.25;4.57;;;;;;;17.65;55.79;100061.03;6069636;23;20021;-92
2024/03/19 15:06:56;;;;;;;8.55;4.57;;;;;;;17.55;56.75;100065.44;6069482;23;20046;-93
2024/03/19 15:09:46;;;;;;;9.25;4.82;;;;;;;17.47;55.06;100054.56;6043807;23;20019;-92
2024/03/19 15:12:12;;;;;;;12.02;5.43;;;;;;;17.51;56.84;100053.34;6043862;23;20339;-93
2024/03/19 15:14:39;;;;;;;8.95;5.30;;;;;;;17.49;56.97;100037.50;6044032;23;20026;-92
2024/03/19 15:20:24;;;;;;;7.25;4.53;;;;;;;17.63;57.75;100032.84;6067580;23;20078;-92
2024/03/19 15:22:49;;;;;;;9.52;4.32;;;;;;;17.73;57.91;100040.94;6043595;23;20026;-92
2024/03/19 15:25:39;;;;;;;5.70;4.15;;;;;;;17.80;55.86;100040.28;6067689;23;20473;-92
2024/03/19 15:28:06;;;;;;;6.95;4.32;;;;;;;17.95;57.40;100037.34;6043846;23;20365;-92
2024/03/19 15:30:32;;;;;;;8.02;4.07;;;;;;;18.03;57.35;100040.22;6067501;23;20331;-93
2024/03/19 15:33:10;;;;;;;6.60;3.70;;;;;;;18.06;53.48;100050.56;6043626;23;20031;-93
2024/03/19 15:35:36;;;;;;;7.25;3.97;;;;;;;18.16;55.83;100047.19;6067404;23;20027;-92
2024/03/19 15:38:29;;;;;;;5.78;4.05;;;;;;;18.11;54.46;100039.59;6043616;23;20074;-93
2024/03/19 15:40:55;;;;;;;6.40;3.90;;;;;;;18.16;56.32;100040.03;6043604;23;20078;-93
2024/03/19 15:43:21;;;;;;;5.80;3.75;;;;;;;18.16;56.38;100041.88;6067403;23;20027;-93
2024/03/19 15:46:12;;;;;;;7.32;4.00;;;;;;;18.10;54.56;100037.91;6043344;23;20038;-92
2024/03/19 15:48:39;;;;;;;8.52;4.57;;;;;;;18.13;56.21;100031.47;6043440;23;20027;-93
2024/03/19 15:51:10;;;;;;;7.38;4.28;;;;;;;18.08;54.88;100037.16;6043724;23;20029;-93
2024/03/19 15:57:18;;;;;;;8.65;4.78;;;;;;;18.06;56.07;100033.78;6068750;23;20022;-93
2024/03/19 15:59:44;;;;;;;7.75;5.50;;;;;;;18.02;56.08;100029.69;6043643;23;20042;-92
2024/03/19 16:02:22;;;;;;;9.00;5.53;;;;;;;17.93;54.58;100025.94;6043394;23;20026;-93
2024/03/19 16:04:50;;;;;;;8.65;5.03;;;;;;;17.93;56.91;100031.28;6043601;23;20091;-93
2024/03/19 16:07:16;;;;;;;11.43;5.32;;;;;;;17.90;57.01;100032.38;6043568;23;20028;-93
2024/03/19 16:09:56;;;;;;;6.90;5.68;;;;;;;17.83;55.88;100026.72;6043125;23;20022;-93
2024/03/19 16:12:21;;;;;;;12.25;6.47;;;;;;;17.90;57.33;100028.91;6043431;23;20026;-93
2024/03/19 16:14:47;;;;;;;7.88;5.65;;;;;;;17.89;57.25;100033.38;6043527;23;20027;-93
2024/03/19 16:20:59;;;;;;;7.97;5.63;;;;;;;17.95;57.99;100050.66;6068693;23;20046;-93
2024/03/19 16:23:39;;;;;;;8.35;6.18;;;;;;;17.91;56.17;100041.22;6067168;23;20031;-93
2024/03/19 16:26:05;;;;;;;7.85;6.50;;;;;;;17.96;57.84;100042.53;6043451;23;20374;-93
2024/03/19 16:28:32;;;;;;;9.68;6.93;;;;;;;17.96;57.54;100049.66;6043178;23;20019;-93
2024/03/19 16:30:59;;;;;;;13.60;7.38;;;;;;;17.93;57.03;100053.44;6043275;23;20331;-93
2024/03/19 16:33:24;;;;;;;9.82;7.72;;;;;;;17.92;57.17;100057.09;6043107;23;20097;-93
2024/03/19 16:36:16;;;;;;;10.23;7.20;;;;;;;17.84;55.93;100062.19;6043290;23;20027;-92
2024/03/19 16:38:42;;;;;;;15.07;8.13;;;;;;;17.87;57.46;100066.41;6043054;23;20023;-92
2024/03/19 16:41:08;;;;;;;9.32;7.53;;;;;;;17.83;57.51;100058.69;6042858;23;20090;-92
2024/03/19 16:44:00;;;;;;;16.83;8.18;;;;;;;17.76;57.03;100068.13;6066946;23;20026;-92
2024/03/19 16:49:45;;;;;;;10.23;7.60;;;;;;;17.79;58.22;100057.25;6067306;23;20027;-95
2024/03/19 16:55:57;;;;;;;12.32;8.68;;;;;;;17.75;58.44;100050.47;6069227;23;20025;-94
2024/03/19 17:02:14;;;;;;;11.82;8.13;;;;;;;17.69;58.08;100061.66;6069715;23;20022;-94
2024/03/19 17:04:40;;;;;;;11.27;8.52;;;;;;;17.64;58.13;100066.50;6043343;23;20022;-93
2024/03/19 17:07:06;;;;;;;10.32;7.57;;;;;;;17.59;58.49;100069.53;6043279;23;20075;-92
2024/03/19 17:09:41;;;;;;;12.38;7.53;;;;;;;17.51;57.70;100071.97;6067021;23;20454;-92
2024/03/19 17:12:07;;;;;;;13.27;8.48;;;;;;;17.49;58.23;100069.44;6043118;23;20023;-92
2024/03/19 17:17:41;;;;;;;12.70;7.82;;;;;;;17.38;58.23;100077.47;6067124;23;20019;-92
2024/03/19 17:20:10;;;;;;;13.45;8.70;;;;;;;17.29;57.90;100085.22;6043325;23;20054;-91
2024/03/19 17:26:22;;;;;;;12.68;7.95;;;;;;;17.16;58.63;100073.88;6068604;23;20026;-93
2024/03/19 17:29:17;;;;;;;14.68;9.57;;;;;;;17.02;57.90;100075.78;6043216;23;20023;-92
2024/03/19 17:31:43;;;;;;;14.13;8.10;;;;;;;16.99;58.93;100083.13;6043440;23;20027;-93
2024/03/19 17:38:30;;;;;;;12.73;9.02;;;;;;;16.72;58.24;100089.66;6069235;23;20342;-94
2024/03/19 17:44:13;;;;;;;25.85;9.77;;;;;;;16.56;59.59;100087.34;6066896;23;20019;-93
2024/03/19 17:46:47;;;;;;;15.55;9.55;;;;;;;16.44;58.44;100097.13;6042992;23;20082;-92
2024/03/19 17:49:24;;;;;;;13.57;9.60;;;;;;;16.34;58.50;100089.00;6042849;23;20022;-93
2024/03/19 17:51:49;;;;;;;17.98;9.60;;;;;;;16.32;59.87;100098.88;6042878;23;20030;-93
2024/03/19 17:54:44;;;;;;;20.65;10.90;;;;;;;16.20;59.21;100093.56;6043044;23;20362;-92
2024/03/19 17:57:10;;;;;;;20.88;9.90;;;;;;;16.19;59.83;100096.31;6043027;23;20018;-93
2024/03/19 17:59:36;;;;;;;15.40;10.32;;;;;;;16.13;59.94;100095.81;6066844;23;20098;-93
2024/03/19 18:02:17;;;;;;;12.73;9.48;;;;;;;16.03;59.39;100100.09;6042864;23;20038;-93
2024/03/19 18:04:42;;;;;;;14.85;9.48;;;;;;;16.03;60.22;100102.75;6066819;23;20026;-92
2024/03/19 18:07:10;;;;;;;16.05;10.05;;;;;;;15.98;60.30;100102.28;6066557;23;20066;-92
2024/03/19 18:09:35;;;;;;;19.05;10.45;;;;;;;15.95;60.34;100113.09;6043160;23;20023;-92
2024/03/19 18:12:37;;;;;;;16.10;10.20;;;;;;;15.86;59.55;100112.78;6044573;23;20476;-92
2024/03/19 18:15:08;;;;;;;17.98;10.70;;;;;;;15.87;60.58;100109.19;6044669;23;20018;-92
2024/03/19 18:17:43;;;;;;;16.35;10.02;;;;;;;15.81;60.06;100114.13;6068594;23;20030;-92
2024/03/19 18:20:13;;;;;;;16.77;10.60;;;;;;;15.80;60.71;100115.06;6068833;23;20023;-93
2024/03/19 18:22:48;;;;;;;13.50;9.48;;;;;;;15.71;60.51;100109.50;6044659;23;20059;-92
2024/03/19 18:25:18;;;;;;;12.23;9.15;;;;;;;15.69;60.73;100114.03;6044613;23;20027;-92
2024/03/19 18:27:44;;;;;;;14.05;10.48;;;;;;;15.66;61.28;100106.28;6044475;23;20023;-93
2024/03/19 18:30:23;;;;;;;15.40;10.70;;;;;;;15.58;60.51;100114.81;6044507;23;20055;-93
2024/03/19 18:32:49;;;;;;;12.88;10.25;;;;;;;15.58;61.09;100108.66;6044547;23;20030;-94
2024/03/19 18:35:16;;;;;;;13.27;10.23;;;;;;;15.54;60.94;100117.78;6044839;23;20360;-92
2024/03/19 18:37:56;;;;;;;25.10;10.80;;;;;;;15.46;60.77;100119.22;6044665;23;20395;-93
2024/03/19 18:40:22;;;;;;;17.95;10.75;;;;;;;15.47;61.43;100120.91;6044517;23;20029;-92
2024/03/19 18:42:49;;;;;;;16.50;10.43;;;;;;;15.46;61.27;100124.53;6044365;23;20415;-92
2024/03/19 18:52:49;;;;;;;14.48;9.90;;;;;;;15.35;61.65;100120.00;6076621;23;20041;-96
2024/03/19 18:59:03;;;;;;;15.68;10.38;;;;;;;15.26;61.51;100125.09;6076339;23;20085;-96
2024/03/19 19:05:19;;;;;;;15.82;11.00;;;;;;;15.16;61.87;100130.19;6077266;23;20025;-96
2024/03/19 19:11:31;;;;;;;15.27;10.10;;;;;;;15.09;62.52;100125.34;6071536;23;20469;-95
2024/03/19 19:17:38;;;;;;;14.65;11.35;;;;;;;15.06;62.42;100125.53;6070786;23;20026;-95
